Time;durP1;ratioP1;P1;durP2;ratioP2;P2;SDS_P1;SDS_P2;PMS_P1;PMS_P2;Temp;Humidity;BMP_temperature;BMP_pressure;BME280_temperature;BME280_humidity;BME280_pressure;Samples;Min_cycle;Max_cycle;Signal;HPM_P1;HPM_P2
2021/12/22 00:02:08;;;;;;;20.27;10.93;;;-3.90;99.90;;;-5.03;100.00;98011.47;5010307;28;20079;-41
2021/12/22 00:04:39;;;;;;;24.25;11.32;;;-3.90;99.90;;;-5.05;100.00;98013.97;5024682;28;20044;-42
2021/12/22 00:07:05;;;;;;;23.37;11.17;;;-3.90;99.90;;;-5.06;100.00;98017.41;5027765;28;20418;-42
2021/12/22 00:09:31;;;;;;;19.23;11.32;;;-4.00;99.90;;;-5.05;100.00;98019.13;5015530;28;20383;-37
2021/12/22 00:11:56;;;;;;;17.35;11.02;;;-4.00;99.90;;;-5.08;100.00;98013.00;5028649;28;20044;-42
2021/12/22 00:14:22;;;;;;;21.38;11.93;;;-3.90;99.90;;;-5.08;100.00;98007.88;5024656;28;20635;-40
2021/12/22 00:16:49;;;;;;;18.02;10.77;;;-3.90;99.90;;;-5.10;100.00;98015.53;5027864;28;20668;-38
2021/12/22 00:19:15;;;;;;;23.13;11.30;;;-3.90;99.90;;;-5.11;100.00;98007.78;5025308;28;20048;-42
2021/12/22 00:21:41;;;;;;;21.50;10.93;;;-4.00;99.90;;;-5.10;100.00;98005.22;5026169;28;20041;-41
2021/12/22 00:24:07;;;;;;;21.58;10.95;;;-4.00;99.90;;;-5.20;100.00;97988.63;5035881;28;20419;-42
2021/12/22 00:26:32;;;;;;;18.92;11.18;;;-4.00;99.90;;;-5.11;100.00;98005.22;5036299;28;20036;-40
2021/12/22 00:28:58;;;;;;;20.20;10.90;;;-4.00;99.90;;;-5.20;100.00;98001.47;5038213;28;20036;-40
2021/12/22 00:31:24;;;;;;;20.27;11.10;;;-4.00;99.90;;;-5.16;100.00;97999.03;5041235;28;20032;-40
2021/12/22 00:33:51;;;;;;;19.98;11.93;;;-4.10;99.90;;;-5.15;100.00;98005.91;5041175;28;20482;-42
2021/12/22 00:36:24;;;;;;;19.13;10.90;;;-4.00;99.90;;;-5.16;100.00;98005.03;5040347;28;20032;-41
2021/12/22 00:38:52;;;;;;;18.55;10.45;;;-4.00;99.90;;;-5.15;100.00;97995.63;5030730;28;20036;-45
2021/12/22 00:41:18;;;;;;;20.05;11.30;;;-4.00;99.90;;;-5.19;100.00;97986.91;5034555;28;20046;-41
2021/12/22 00:43:44;;;;;;;21.33;10.88;;;-4.00;99.90;;;-5.26;100.00;97985.84;5050938;23;20033;-82
2021/12/22 00:46:12;;;;;;;19.80;11.35;;;-4.00;99.90;;;-5.24;100.00;97991.91;5029806;28;20526;-81
2021/12/22 00:48:39;;;;;;;21.38;11.90;;;-4.10;99.90;;;-5.26;100.00;97998.72;5022604;28;20021;-82
2021/12/22 00:51:05;;;;;;;20.75;11.80;;;-4.10;99.90;;;-5.26;100.00;98009.00;5021386;28;20036;-81
2021/12/22 00:53:30;;;;;;;20.70;11.23;;;-4.10;99.90;;;-5.37;100.00;97995.72;5050766;28;20250;-81
2021/12/22 00:55:56;;;;;;;19.35;10.85;;;-4.10;99.90;;;-5.32;100.00;98003.63;5053434;23;20533;-44
2021/12/22 00:58:22;;;;;;;18.60;10.68;;;-4.00;99.90;;;-5.36;100.00;97994.06;5035324;28;20044;-46
2021/12/22 01:00:49;;;;;;;22.98;10.90;;;-4.00;99.90;;;-5.23;100.00;98008.22;5032406;28;20044;-48
2021/12/22 01:03:20;;;;;;;19.45;11.52;;;-4.10;99.90;;;-5.24;100.00;98012.50;5029508;28;20067;-44
2021/12/22 01:05:46;;;;;;;18.70;11.03;;;-4.10;99.90;;;-5.25;100.00;98012.44;5010785;28;20407;-44
2021/12/22 01:08:12;;;;;;;21.83;10.75;;;-4.10;99.90;;;-5.25;100.00;98020.16;5015553;28;20786;-47
2021/12/22 01:10:38;;;;;;;18.38;11.00;;;-4.10;99.90;;;-5.26;100.00;98013.25;5013621;28;20353;-45
2021/12/22 01:13:07;;;;;;;21.15;11.20;;;-4.10;99.90;;;-5.28;100.00;98005.47;5015709;28;20045;-44
2021/12/22 01:15:35;;;;;;;21.30;10.98;;;-4.10;99.90;;;-5.29;100.00;98003.75;5015824;28;20068;-47
2021/12/22 01:18:14;;;;;;;21.58;11.23;;;-4.10;99.90;;;-5.31;100.00;98007.97;5014278;28;20021;-47
2021/12/22 01:21:47;;;;;;;17.83;10.75;;;-4.20;99.90;;;-5.32;100.00;98013.03;5015676;28;20368;-40
2021/12/22 01:23:50;;;;;;;21.10;11.00;;;-4.20;99.90;;;-5.29;100.00;98007.97;5008779;28;20150;-45
2021/12/22 01:26:16;;;;;;;19.02;11.00;;;-4.20;99.90;;;-5.31;100.00;98010.53;5016178;28;20021;-45
2021/12/22 01:28:43;;;;;;;16.98;10.27;;;-4.20;99.90;;;-5.33;100.00;98013.84;5018143;28;20157;-45
2021/12/22 01:31:15;;;;;;;17.90;10.30;;;-4.20;99.90;;;-5.37;100.00;98015.44;5016288;28;20022;-45
2021/12/22 01:33:41;;;;;;;19.92;10.75;;;-4.20;99.90;;;-5.37;100.00;98016.31;5016335;28;20041;-45
2021/12/22 01:36:07;;;;;;;19.25;11.20;;;-4.20;99.90;;;-5.36;100.00;98022.34;5016554;28;20033;-45
2021/12/22 01:38:32;;;;;;;23.52;11.30;;;-4.30;99.90;;;-5.40;100.00;98018.78;5016318;28;20026;-45
2021/12/22 01:40:58;;;;;;;19.45;10.85;;;-4.30;99.90;;;-5.38;100.00;98029.13;5013678;28;20037;-45
2021/12/22 01:43:24;;;;;;;20.65;11.50;;;-4.30;99.90;;;-5.39;100.00;98027.38;5015903;28;20117;-46
2021/12/22 01:51:43;;;;;;;20.67;10.77;;;-4.30;99.90;;;-5.49;100.00;98025.28;5015489;28;20095;-47
2021/12/22 01:54:39;;;;;;;18.45;10.45;;;-4.30;99.90;;;-5.50;100.00;98032.13;5015393;28;20060;-43
2021/12/22 01:57:09;;;;;;;18.48;11.23;;;-4.40;99.90;;;-5.51;100.00;98021.78;5014940;28;20359;-44
2021/12/22 01:59:37;;;;;;;20.48;10.77;;;-4.40;99.90;;;-5.63;100.00;98011.94;5013642;28;20029;-39
2021/12/22 02:02:07;;;;;;;17.92;10.55;;;-4.40;99.90;;;-5.59;100.00;98004.38;5013850;28;20036;-45
2021/12/22 02:04:33;;;;;;;17.95;10.80;;;-4.40;99.90;;;-5.58;100.00;98011.28;5015983;28;20061;-45
2021/12/22 02:06:59;;;;;;;19.83;10.57;;;-4.40;99.90;;;-5.59;100.00;98022.38;5016235;28;20425;-45
2021/12/22 02:09:54;;;;;;;20.88;11.25;;;-4.40;99.90;;;-5.61;100.00;98015.44;5015756;28;20995;-46
2021/12/22 02:12:19;;;;;;;21.33;10.65;;;-4.50;99.90;;;-5.63;100.00;98015.38;5013817;28;20071;-45
2021/12/22 02:14:46;;;;;;;21.58;10.95;;;-4.50;99.90;;;-5.72;100.00;98012.47;5013056;28;20037;-39
2021/12/22 02:17:13;;;;;;;20.45;11.15;;;-4.50;99.90;;;-5.66;100.00;98022.09;5014902;28;20034;-43
2021/12/22 02:19:44;;;;;;;19.45;10.98;;;-4.50;99.90;;;-5.67;100.00;98022.91;5015372;28;20033;-45
2021/12/22 02:22:14;;;;;;;18.88;10.70;;;-4.50;99.90;;;-5.69;100.00;98020.28;5014963;28;20036;-47
2021/12/22 02:24:46;;;;;;;21.45;11.07;;;-4.50;99.90;;;-5.63;100.00;98020.53;5014390;28;20524;-45
2021/12/22 02:27:21;;;;;;;19.27;10.98;;;-4.50;99.90;;;-5.68;100.00;98014.34;5012616;28;20037;-46
2021/12/22 02:29:48;;;;;;;18.95;10.38;;;-4.50;99.90;;;-5.62;100.00;98023.97;5015136;28;20080;-43
2021/12/22 02:32:36;;;;;;;18.60;10.02;;;-4.50;99.90;;;-5.62;100.00;98019.69;5014447;28;20032;-46
2021/12/22 02:35:03;;;;;;;19.33;11.02;;;-4.50;99.90;;;-5.65;100.00;98014.47;5014790;28;20118;-45
2021/12/22 02:37:30;;;;;;;18.92;11.27;;;-4.50;99.90;;;-5.71;100.00;98010.78;5014320;28;20029;-45
2021/12/22 02:40:10;;;;;;;18.95;10.52;;;-4.50;99.90;;;-5.70;100.00;98022.81;5013286;28;20510;-45
2021/12/22 02:42:36;;;;;;;19.20;10.45;;;-4.50;99.90;;;-5.80;100.00;98011.31;5013743;28;20042;-42
2021/12/22 02:45:13;;;;;;;20.30;10.48;;;-4.60;99.90;;;-5.78;100.00;98013.13;5015056;28;20487;-46
2021/12/22 02:47:39;;;;;;;18.58;11.40;;;-4.60;99.90;;;-5.79;100.00;98021.66;5012725;28;20437;-44
2021/12/22 02:50:07;;;;;;;18.95;11.30;;;-4.60;99.90;;;-5.80;100.00;98021.59;5012322;28;20025;-43
2021/12/22 02:52:49;;;;;;;17.20;10.88;;;-4.60;99.90;;;-5.84;100.00;98012.91;5014539;28;20030;-45
2021/12/22 02:55:15;;;;;;;20.30;11.75;;;-4.60;99.90;;;-5.80;100.00;98027.59;5015368;28;20063;-44
2021/12/22 02:57:46;;;;;;;19.90;11.60;;;-4.60;99.90;;;-5.89;100.00;98006.69;5015251;28;20322;-47
2021/12/22 03:00:33;;;;;;;22.33;11.80;;;-4.60;99.90;;;-5.80;100.00;98016.44;5017351;28;20144;-45
2021/12/22 03:03:15;;;;;;;19.95;10.90;;;-4.60;99.90;;;-5.78;100.00;98017.38;5014540;28;20288;-43
2021/12/22 03:05:41;;;;;;;20.33;11.60;;;-4.60;99.90;;;-5.71;100.00;98015.91;5011839;28;20399;-43
2021/12/22 03:08:07;;;;;;;22.65;12.38;;;-4.60;99.90;;;-5.69;100.00;98011.72;5016518;28;20407;-45
2021/12/22 03:10:33;;;;;;;22.13;11.93;;;-4.60;99.90;;;-5.71;100.00;98019.34;5014454;28;20026;-44
2021/12/22 03:13:03;;;;;;;22.17;11.90;;;-4.60;99.90;;;-5.72;100.00;98012.47;5013248;28;20028;-45
2021/12/22 03:15:30;;;;;;;22.73;12.10;;;-4.60;99.90;;;-5.76;100.00;98011.50;5014079;28;20030;-46
2021/12/22 03:17:56;;;;;;;21.48;12.00;;;-4.60;99.90;;;-5.75;100.00;98012.34;5014133;28;20071;-43
2021/12/22 03:20:22;;;;;;;22.05;12.35;;;-4.60;99.90;;;-5.76;100.00;98011.50;5014247;28;20029;-44
2021/12/22 03:22:49;;;;;;;25.45;11.88;;;-4.60;99.90;;;-5.84;100.00;97994.03;5013287;28;20079;-44
2021/12/22 03:25:17;;;;;;;24.60;11.45;;;-4.60;99.90;;;-5.78;100.00;98018.28;5014324;28;20021;-44
2021/12/22 03:27:52;;;;;;;22.55;12.38;;;-4.60;99.90;;;-5.76;100.00;98014.06;5015317;28;20024;-44
2021/12/22 03:30:24;;;;;;;21.88;11.95;;;-4.60;99.90;;;-5.79;100.00;98008.81;5014155;28;20383;-41
2021/12/22 03:32:50;;;;;;;22.63;11.27;;;-4.60;99.90;;;-5.81;100.00;98007.00;5013880;28;20423;-47
2021/12/22 03:35:18;;;;;;;22.48;12.23;;;-4.70;99.90;;;-5.84;100.00;98002.63;5011623;28;20034;-45
2021/12/22 03:37:49;;;;;;;20.17;11.63;;;-4.70;99.90;;;-5.86;100.00;98008.53;5014660;28;20029;-42
2021/12/22 03:40:15;;;;;;;21.88;11.80;;;-4.70;99.90;;;-5.88;100.00;98010.16;5015033;28;20034;-45
2021/12/22 03:42:41;;;;;;;22.92;11.63;;;-4.70;99.90;;;-5.91;100.00;98010.03;5014722;28;20022;-44
2021/12/22 03:45:07;;;;;;;20.33;11.82;;;-4.80;99.90;;;-5.91;100.00;98020.31;5013019;28;20088;-44
2021/12/22 03:47:34;;;;;;;17.98;10.95;;;-4.80;99.90;;;-5.94;100.00;98036.47;5014608;28;20035;-44
2021/12/22 03:50:00;;;;;;;20.90;11.23;;;-4.80;99.90;;;-5.97;100.00;98039.84;5013688;28;20106;-45
2021/12/22 03:52:25;;;;;;;22.45;12.30;;;-4.80;99.90;;;-6.01;100.00;98031.94;5014595;28;20463;-44
2021/12/22 03:54:57;;;;;;;20.20;11.20;;;-4.80;99.90;;;-5.95;100.00;98035.59;5011573;28;20037;-43
2021/12/22 03:57:27;;;;;;;23.23;11.63;;;-4.80;99.90;;;-5.99;100.00;98038.91;5012508;28;20030;-44
2021/12/22 03:59:57;;;;;;;19.83;11.70;;;-4.80;99.90;;;-6.01;100.00;98034.53;5012603;28;20468;-44
2021/12/22 04:02:23;;;;;;;19.65;11.57;;;-4.80;99.90;;;-6.04;100.00;98037.88;5013940;28;20029;-46
2021/12/22 04:04:50;;;;;;;25.63;11.93;;;-4.90;99.90;;;-6.04;100.00;98043.00;5015228;28;20038;-43
2021/12/22 04:07:17;;;;;;;23.02;12.05;;;-4.90;99.90;;;-6.03;100.00;98036.16;5017122;28;20060;-44
2021/12/22 04:09:43;;;;;;;22.63;12.07;;;-4.90;99.90;;;-6.12;100.00;98031.53;5015752;28;20022;-44
2021/12/22 04:12:10;;;;;;;19.45;10.98;;;-4.90;99.90;;;-6.09;100.00;98041.94;5017377;28;20115;-40
2021/12/22 04:14:35;;;;;;;21.83;11.32;;;-4.90;99.90;;;-6.12;100.00;98028.97;5015610;28;20781;-45
2021/12/22 04:17:01;;;;;;;20.02;11.48;;;-4.90;99.90;;;-6.15;100.00;98031.44;4999802;28;20037;-45
2021/12/22 04:19:27;;;;;;;22.23;11.95;;;-5.00;99.90;;;-6.15;100.00;98034.00;5016960;28;20505;-42
2021/12/22 04:21:53;;;;;;;22.52;12.00;;;-5.00;99.90;;;-6.11;100.00;98027.31;5017649;28;20029;-45
2021/12/22 04:24:20;;;;;;;20.15;11.68;;;-5.00;99.90;;;-6.05;100.00;98023.25;5015466;28;20072;-45
2021/12/22 04:26:46;;;;;;;23.75;12.57;;;-4.90;99.90;;;-6.10;100.00;98026.47;5016373;28;20726;-46
2021/12/22 04:29:13;;;;;;;21.65;12.23;;;-5.00;99.90;;;-6.12;100.00;98013.56;5018479;28;20030;-46
2021/12/22 04:31:39;;;;;;;17.77;11.32;;;-5.00;99.90;;;-6.15;100.00;98009.19;5015791;28;20656;-45
2021/12/22 04:34:08;;;;;;;26.63;12.55;;;-4.90;99.90;;;-6.11;100.00;98017.91;5016270;28;20476;-48
2021/12/22 04:36:36;;;;;;;21.83;11.40;;;-5.00;99.90;;;-6.16;100.00;98015.13;5015613;28;20079;-47
2021/12/22 04:39:04;;;;;;;23.17;12.95;;;-5.00;99.90;;;-6.17;100.00;98012.53;5014020;28;20033;-44
2021/12/22 04:41:30;;;;;;;21.75;11.93;;;-5.00;99.90;;;-6.19;100.00;98016.72;5015649;28;20029;-48
2021/12/22 04:43:56;;;;;;;21.92;12.13;;;-5.00;99.90;;;-6.20;100.00;98010.72;5012688;28;20068;-45
2021/12/22 04:46:22;;;;;;;22.00;12.55;;;-5.00;99.90;;;-6.19;100.00;98015.06;5015855;28;20061;-46
2021/12/22 04:48:48;;;;;;;21.08;11.52;;;-5.00;99.90;;;-6.22;100.00;98014.06;5016618;28;20051;-45
2021/12/22 04:51:23;;;;;;;21.48;11.88;;;-5.00;99.90;;;-6.22;100.00;98012.34;5016572;28;20030;-47
2021/12/22 04:53:58;;;;;;;21.00;11.48;;;-5.00;99.90;;;-6.27;100.00;97995.03;5012704;28;20090;-44
2021/12/22 04:56:24;;;;;;;20.98;11.75;;;-5.00;99.90;;;-6.24;100.00;98002.84;5017178;28;20267;-44
2021/12/22 04:58:50;;;;;;;20.23;11.77;;;-5.10;99.90;;;-6.26;100.00;98009.59;5016483;28;20747;-46
2021/12/22 05:01:15;;;;;;;27.30;13.30;;;-5.10;99.90;;;-6.28;100.00;98003.53;5015179;28;20036;-46
2021/12/22 05:03:41;;;;;;;22.00;11.90;;;-5.10;99.90;;;-6.34;100.00;97992.19;5013169;28;20140;-43
2021/12/22 05:06:07;;;;;;;21.48;11.88;;;-5.10;99.90;;;-6.32;100.00;97986.25;5020890;28;20083;-46
2021/12/22 05:08:33;;;;;;;20.45;11.90;;;-5.10;99.90;;;-6.32;100.00;97991.41;5018796;28;20028;-44
2021/12/22 05:10:59;;;;;;;21.90;12.25;;;-5.10;99.90;;;-6.32;100.00;97994.84;5018324;28;20564;-43
2021/12/22 05:13:25;;;;;;;21.63;12.55;;;-5.10;99.90;;;-6.33;100.00;98003.38;5015455;28;20033;-44
2021/12/22 05:15:52;;;;;;;24.20;12.05;;;-5.10;99.90;;;-6.34;100.00;97999.91;5011106;28;20081;-44
2021/12/22 05:18:36;;;;;;;22.42;12.32;;;-5.20;99.90;;;-6.37;100.00;98010.06;5015864;28;20436;-44
2021/12/22 05:21:03;;;;;;;22.25;12.48;;;-5.20;99.90;;;-6.38;100.00;98004.88;5015073;28;20510;-43
2021/12/22 05:23:28;;;;;;;21.00;12.20;;;-5.20;99.90;;;-6.36;100.00;98004.09;5017128;28;20069;-45
2021/12/22 05:25:54;;;;;;;22.00;12.52;;;-5.20;99.90;;;-6.37;100.00;98002.38;5015199;28;20517;-41
2021/12/22 05:28:20;;;;;;;22.70;12.23;;;-5.20;99.90;;;-6.37;100.00;98009.19;5010988;28;20053;-45
2021/12/22 05:30:47;;;;;;;22.33;12.13;;;-5.10;99.90;;;-6.38;100.00;98010.88;5011495;28;20103;-44
2021/12/22 05:33:13;;;;;;;25.17;12.45;;;-5.20;99.90;;;-6.39;100.00;98009.16;5012167;28;20044;-45
2021/12/22 05:35:39;;;;;;;22.33;12.43;;;-5.20;99.90;;;-6.38;100.00;98015.13;5010351;28;20037;-45
2021/12/22 05:38:05;;;;;;;26.33;12.60;;;-5.20;99.90;;;-6.42;100.00;98011.59;5010050;28;20333;-47
2021/12/22 05:40:31;;;;;;;23.40;12.20;;;-5.20;99.90;;;-6.42;100.00;98018.41;5012359;28;20041;-40
2021/12/22 05:42:57;;;;;;;24.30;13.13;;;-5.20;99.90;;;-6.45;100.00;98021.72;5010299;28;20064;-38
2021/12/22 05:45:27;;;;;;;23.92;12.68;;;-5.30;99.90;;;-6.47;100.00;98022.47;5009781;28;21342;-47
2021/12/22 05:47:53;;;;;;;20.08;10.95;;;-5.30;99.90;;;-6.47;100.00;98028.47;5009951;28;20037;-46
2021/12/22 05:50:21;;;;;;;19.98;11.63;;;-5.30;99.90;;;-6.49;100.00;98029.25;5011741;28;20029;-43
2021/12/22 05:52:47;;;;;;;21.02;11.25;;;-5.30;99.90;;;-6.52;100.00;98024.84;5012359;28;20075;-44
2021/12/22 05:55:13;;;;;;;22.27;12.05;;;-5.30;99.90;;;-6.54;100.00;98029.06;5014266;28;20030;-43
2021/12/22 05:57:39;;;;;;;25.67;13.02;;;-5.30;99.90;;;-6.57;100.00;98018.66;5011234;28;20323;-42
2021/12/22 06:00:07;;;;;;;20.55;11.77;;;-5.30;99.90;;;-6.57;100.00;98029.81;5012954;28;20053;-40
2021/12/22 06:02:33;;;;;;;22.92;11.80;;;-5.30;99.90;;;-6.55;100.00;98027.28;5010101;28;20760;-43
2021/12/22 06:04:59;;;;;;;21.77;11.90;;;-5.30;99.90;;;-6.55;100.00;98024.72;5008733;28;20125;-42
2021/12/22 06:07:24;;;;;;;24.30;12.20;;;-5.30;99.90;;;-6.55;100.00;98030.75;5011666;28;20029;-44
2021/12/22 06:09:50;;;;;;;20.55;11.30;;;-5.30;99.90;;;-6.55;100.00;98022.16;5010537;28;20060;-44
2021/12/22 06:12:16;;;;;;;20.52;12.15;;;-5.40;99.90;;;-6.54;100.00;98024.78;5011687;28;20030;-46
2021/12/22 06:14:42;;;;;;;25.17;12.98;;;-5.30;99.90;;;-6.47;100.00;98027.63;5011753;28;20279;-44
2021/12/22 06:17:07;;;;;;;22.40;12.35;;;-5.30;99.90;;;-6.46;100.00;98027.69;5010256;28;20194;-42
2021/12/22 06:19:33;;;;;;;20.88;12.27;;;-5.30;99.90;;;-6.53;100.00;98008.59;5010946;28;20410;-44
2021/12/22 06:22:00;;;;;;;20.95;11.98;;;-5.30;99.90;;;-6.50;100.00;98018.09;5013140;28;20033;-43
2021/12/22 06:24:26;;;;;;;23.17;12.38;;;-5.30;99.90;;;-6.50;100.00;98024.91;5013512;28;20075;-42
2021/12/22 06:26:52;;;;;;;26.25;13.10;;;-5.30;99.90;;;-6.52;100.00;98033.41;5009877;28;20032;-43
2021/12/22 06:29:17;;;;;;;19.75;11.27;;;-5.30;99.90;;;-6.52;100.00;98030.00;5011775;28;20022;-44
2021/12/22 06:31:43;;;;;;;24.23;12.18;;;-5.30;99.90;;;-6.57;100.00;98024.69;5007865;28;20034;-44
2021/12/22 06:34:09;;;;;;;22.63;12.77;;;-5.40;99.90;;;-6.54;100.00;98018.78;5012478;28;20048;-43
2021/12/22 06:36:35;;;;;;;23.15;12.38;;;-5.40;99.90;;;-6.58;100.00;98017.78;5010531;28;20034;-44
2021/12/22 06:39:01;;;;;;;23.27;11.88;;;-5.40;99.90;;;-6.56;100.00;98015.28;5011501;28;20033;-44
2021/12/22 06:41:28;;;;;;;22.83;12.23;;;-5.40;99.90;;;-6.56;100.00;98023.00;5010558;28;20361;-42
2021/12/22 06:43:53;;;;;;;24.05;11.90;;;-5.40;99.90;;;-6.72;100.00;97996.69;5031454;23;20063;-43
2021/12/22 06:46:19;;;;;;;20.35;12.13;;;-5.40;99.90;;;-6.55;100.00;98024.72;5029968;28;20036;-45
2021/12/22 06:48:45;;;;;;;20.98;11.43;;;-5.30;99.90;;;-6.55;100.00;98028.19;5030509;28;20747;-41
2021/12/22 06:51:10;;;;;;;20.63;11.93;;;-5.40;99.90;;;-6.64;100.00;98006.41;5032462;28;20026;-42
2021/12/22 06:53:36;;;;;;;23.58;12.38;;;-5.40;99.90;;;-6.58;100.00;98019.50;5032360;28;20123;-44
2021/12/22 06:56:03;;;;;;;26.17;13.65;;;-5.40;99.90;;;-6.57;100.00;98024.69;5015742;28;20032;-45
2021/12/22 06:58:29;;;;;;;21.73;12.13;;;-5.40;99.90;;;-6.61;100.00;98027.06;5013929;28;20507;-40
2021/12/22 07:00:55;;;;;;;21.90;11.90;;;-5.40;99.90;;;-6.67;100.00;98024.25;5013212;28;20044;-44
2021/12/22 07:03:21;;;;;;;24.30;13.48;;;-5.40;99.90;;;-6.63;100.00;98023.56;5013337;28;20496;-39
2021/12/22 07:05:47;;;;;;;22.13;12.73;;;-5.40;99.90;;;-6.61;100.00;98032.19;5015839;28;20029;-42
2021/12/22 07:08:12;;;;;;;22.83;12.90;;;-5.40;99.90;;;-6.65;100.00;98027.75;5014763;28;20025;-41
2021/12/22 07:10:38;;;;;;;23.13;12.32;;;-5.40;99.90;;;-6.60;100.00;98027.13;5011876;28;20079;-46
2021/12/22 07:13:04;;;;;;;24.80;13.15;;;-5.40;99.90;;;-6.65;100.00;98007.22;4998226;28;20124;-40
2021/12/22 07:15:30;;;;;;;25.23;12.60;;;-5.40;99.90;;;-6.61;100.00;98009.97;5009682;28;20098;-48
2021/12/22 07:17:56;;;;;;;24.45;12.32;;;-5.40;99.90;;;-6.61;100.00;98009.09;5011684;28;20037;-42
2021/12/22 07:20:22;;;;;;;23.85;12.70;;;-5.30;99.90;;;-6.57;100.00;98014.44;5010696;28;20314;-43
2021/12/22 07:22:48;;;;;;;21.90;11.93;;;-5.40;99.90;;;-6.62;100.00;98012.47;5015592;28;20026;-38
2021/12/22 07:25:18;;;;;;;25.00;13.75;;;-5.30;99.90;;;-6.55;100.00;98030.75;5013382;28;20061;-42
2021/12/22 07:27:44;;;;;;;25.98;13.27;;;-5.30;99.90;;;-6.52;100.00;98028.28;5012193;28;20033;-40
2021/12/22 07:30:11;;;;;;;23.73;13.23;;;-5.30;99.90;;;-6.47;100.00;98037.88;5010706;28;20029;-43
2021/12/22 07:32:37;;;;;;;24.58;14.18;;;-5.30;99.90;;;-6.41;100.00;98038.13;5011234;28;20372;-43
2021/12/22 07:35:13;;;;;;;28.10;13.43;;;-5.20;99.90;;;-6.38;100.00;98048.50;5014363;28;20040;-41
2021/12/22 07:37:51;;;;;;;26.60;13.00;;;-5.20;99.90;;;-6.35;100.00;98056.34;5012429;28;20119;-42
2021/12/22 07:40:19;;;;;;;22.77;12.52;;;-5.10;99.90;;;-6.38;100.00;98054.50;5011876;28;20037;-46
2021/12/22 07:42:45;;;;;;;26.40;14.10;;;-5.20;99.90;;;-6.34;100.00;98058.06;5015720;28;20309;-43
2021/12/22 07:45:12;;;;;;;21.25;12.27;;;-5.10;99.90;;;-6.29;100.00;98064.28;5014562;28;20114;-42
2021/12/22 07:47:39;;;;;;;24.33;12.85;;;-5.10;99.90;;;-6.31;100.00;98065.91;5018871;28;20026;-48
2021/12/22 07:50:07;;;;;;;23.35;13.07;;;-5.10;99.90;;;-6.27;100.00;98069.47;5015611;28;20507;-45
2021/12/22 07:52:32;;;;;;;27.58;13.88;;;-5.10;99.90;;;-6.25;100.00;98060.13;5018013;28;20281;-43
2021/12/22 07:54:58;;;;;;;24.05;13.48;;;-5.00;99.90;;;-6.22;100.00;98058.56;5018294;28;20057;-41
2021/12/22 07:57:24;;;;;;;21.55;12.85;;;-5.00;99.90;;;-6.17;100.00;98063.91;5017200;28;20418;-41
2021/12/22 07:59:50;;;;;;;23.65;13.40;;;-5.00;99.90;;;-6.16;100.00;98058.78;5019738;28;20050;-45
2021/12/22 08:02:16;;;;;;;30.20;14.68;;;-4.90;99.90;;;-6.15;100.00;98060.56;5016441;28;20063;-44
2021/12/22 08:04:42;;;;;;;25.58;14.18;;;-4.90;99.90;;;-6.04;100.00;98066.13;5017649;28;20046;-40
2021/12/22 08:07:08;;;;;;;24.75;14.25;;;-4.80;99.90;;;-5.99;100.00;98064.59;5020502;28;20133;-42
2021/12/22 08:09:34;;;;;;;27.02;14.32;;;-4.70;99.90;;;-5.97;100.00;98054.41;5019442;28;20021;-43
2021/12/22 08:12:04;;;;;;;26.50;14.85;;;-4.70;99.90;;;-5.83;100.00;98066.03;5016080;28;20033;-43
2021/12/22 08:14:39;;;;;;;29.65;15.35;;;-4.60;99.90;;;-5.97;100.00;98039.84;5020947;28;20037;-42
2021/12/22 08:17:06;;;;;;;29.30;15.43;;;-4.60;99.90;;;-5.78;100.00;98069.66;5008443;28;20100;-41
2021/12/22 08:19:32;;;;;;;27.30;14.45;;;-4.50;99.90;;;-5.70;100.00;98064.81;5016145;28;20076;-41
2021/12/22 08:21:59;;;;;;;25.17;14.23;;;-4.50;99.90;;;-5.66;100.00;98055.50;5017357;28;20084;-44
2021/12/22 08:24:25;;;;;;;24.88;14.23;;;-4.40;99.90;;;-5.66;100.00;98058.94;5017936;28;20030;-41
2021/12/22 08:26:53;;;;;;;27.00;15.00;;;-4.40;99.90;;;-5.62;100.00;98054.81;5016064;28;20052;-41
2021/12/22 08:29:19;;;;;;;26.42;14.20;;;-4.30;99.90;;;-5.52;100.00;98063.75;5017890;28;20033;-40
2021/12/22 08:31:45;;;;;;;27.85;14.35;;;-4.30;99.90;;;-5.50;100.00;98059.53;5016151;28;20411;-43
2021/12/22 08:34:15;;;;;;;28.02;14.35;;;-4.30;99.90;;;-5.31;100.00;98071.34;5017900;28;20063;-43
2021/12/22 08:39:26;;;;;;;27.95;14.98;;;-4.10;99.90;;;-5.24;100.00;98068.16;5016025;28;20056;-38
2021/12/22 08:41:52;;;;;;;26.70;14.98;;;-4.10;99.90;;;-5.20;100.00;98064.91;5019183;28;20036;-40
2021/12/22 08:44:19;;;;;;;26.75;14.00;;;-4.10;99.90;;;-5.15;100.00;98057.34;5016306;28;20583;-40
2021/12/22 08:46:49;;;;;;;24.67;13.60;;;-4.00;99.90;;;-5.07;100.00;98053.34;5019010;28;20084;-45
2021/12/22 08:49:17;;;;;;;26.17;14.70;;;-3.90;99.90;;;-5.08;100.00;98056.72;5016639;28;20112;-42
2021/12/22 08:51:43;;;;;;;28.05;15.60;;;-3.90;99.90;;;-5.08;100.00;98037.06;5016447;28;20018;-41
2021/12/22 08:54:09;;;;;;;29.25;14.80;;;-3.80;99.90;;;-4.92;100.00;98051.28;5016991;28;20075;-47
2021/12/22 08:56:36;;;;;;;25.42;14.35;;;-3.80;99.90;;;-4.86;100.00;98048.94;5017694;28;20025;-45
2021/12/22 08:59:04;;;;;;;26.38;15.32;;;-3.70;99.90;;;-4.74;100.00;98047.59;5017617;28;20091;-43
2021/12/22 09:01:31;;;;;;;32.10;15.32;;;-3.60;99.90;;;-4.67;100.00;98045.28;5016807;28;20037;-41
2021/12/22 09:03:56;;;;;;;28.38;15.07;;;-3.60;99.90;;;-4.62;100.00;98041.16;5017879;28;20522;-41
2021/12/22 09:06:22;;;;;;;28.02;15.85;;;-3.50;99.90;;;-4.67;100.00;98036.69;5009042;28;20156;-42
2021/12/22 09:08:48;;;;;;;31.50;15.90;;;-3.50;99.90;;;-4.66;100.00;98035.88;5016787;28;20475;-45
2021/12/22 09:11:14;;;;;;;29.63;16.05;;;-3.50;99.90;;;-4.67;100.00;98034.13;5017219;28;20026;-45
2021/12/22 09:13:41;;;;;;;31.60;16.85;;;-3.40;99.90;;;-4.63;100.00;98036.84;5016877;28;20047;-45
2021/12/22 09:16:09;;;;;;;27.65;15.60;;;-3.40;99.90;;;-4.55;100.00;98039.66;5014583;28;20505;-45
2021/12/22 09:18:35;;;;;;;29.85;15.75;;;-3.30;99.90;;;-4.60;100.00;98024.06;4998474;28;20557;-45
2021/12/22 09:21:02;;;;;;;29.85;15.75;;;-3.30;99.90;;;-4.47;100.00;98037.34;5017417;28;20434;-44
2021/12/22 09:23:28;;;;;;;26.85;15.38;;;-3.30;99.90;;;-4.40;100.00;98034.13;5017660;28;20114;-42
2021/12/22 09:25:54;;;;;;;27.02;15.32;;;-3.20;99.90;;;-4.32;100.00;98039.56;5018759;28;20033;-45
2021/12/22 09:28:19;;;;;;;25.98;15.10;;;-3.20;99.90;;;-4.29;100.00;98040.53;5016702;28;20034;-44
2021/12/22 09:30:46;;;;;;;26.17;15.13;;;-3.10;99.90;;;-4.18;100.00;98045.13;5017797;28;20033;-40
2021/12/22 09:33:16;;;;;;;26.73;14.50;;;-3.10;99.90;;;-4.11;100.00;98035.06;5018430;28;20032;-46
2021/12/22 09:35:45;;;;;;;30.27;16.35;;;-3.00;99.90;;;-4.11;100.00;98037.66;5016351;28;20073;-43
2021/12/22 09:38:11;;;;;;;30.70;16.90;;;-2.90;99.90;;;-4.10;100.00;98049.69;5016990;28;20065;-44
2021/12/22 09:40:37;;;;;;;28.98;15.43;;;-2.90;99.90;;;-4.00;100.00;98035.41;5013052;28;20070;-43
2021/12/22 09:43:05;;;;;;;24.58;14.68;;;-2.90;99.90;;;-3.98;100.00;98023.44;5014946;28;20476;-42
2021/12/22 09:45:33;;;;;;;29.65;15.13;;;-2.80;99.90;;;-3.92;100.00;98023.59;5015955;28;20100;-45
2021/12/22 09:50:52;;;;;;;26.90;14.63;;;-2.70;99.90;;;-3.75;100.00;98023.22;5017106;28;20056;-45
2021/12/22 09:53:21;;;;;;;24.15;14.38;;;-2.70;99.90;;;-3.72;100.00;98019.03;5017421;28;20041;-47
2021/12/22 09:55:49;;;;;;;26.80;15.43;;;-2.60;99.90;;;-3.70;100.00;98017.38;5015781;28;20443;-46
2021/12/22 09:58:15;;;;;;;27.27;14.10;;;-2.60;99.90;;;-3.68;100.00;98020.00;5017309;28;20376;-44
2021/12/22 10:00:43;;;;;;;30.08;15.90;;;-2.50;99.90;;;-3.59;100.00;98020.25;5016675;28;20057;-45
2021/12/22 10:03:10;;;;;;;26.50;15.07;;;-2.50;99.90;;;-3.53;100.00;98020.44;5017219;28;20033;-44
2021/12/22 10:05:38;;;;;;;27.02;15.20;;;-2.50;99.90;;;-3.48;100.00;98018.88;5015678;28;20060;-41
2021/12/22 10:08:20;;;;;;;26.00;14.60;;;-2.40;99.90;;;-3.45;100.00;98020.66;5020083;28;20049;-42
2021/12/22 10:11:09;;;;;;;28.30;14.93;;;-2.30;99.90;;;-3.42;100.00;98023.34;5014791;28;20334;-40
2021/12/22 10:13:38;;;;;;;23.95;14.88;;;-2.40;99.90;;;-3.40;100.00;98011.34;5016052;28;20041;-44
2021/12/22 10:16:24;;;;;;;23.65;13.05;;;-2.30;99.90;;;-3.36;100.00;98023.50;5016962;28;20025;-44